EDDP/LEJ METAR and TAF weather

Enter ICAO airport designator
Station Type Date Time Source
EDDP METAR 2018/07/19 06:50 UTC NOAA

EDDP 190650Z 31008KT 270V350 CAVOK 19/12 Q1018 NOSIG


Station Type Date Time Source
EDDP Decoded METAR 2018/07/19 06:50 UTC NOAA

Leipzig-Schkeuditz, Germany (EDDP) 51-25N 012-14E 149M
Jul 19, 2018 - 02:50 AM EDT / 2018.07.19 0650 UTC
Wind: from the NW (310 degrees) at 9 MPH (8 KT) (direction variable):0
Visibility: greater than 7 mile(s):0
Temperature: 66 F (19 C)
Dew Point: 53 F (12 C)
Relative Humidity: 63%
Pressure (altimeter): 30.06 in. Hg (1018 hPa)
ob: EDDP 190650Z 31008KT 270V350 CAVOK 19/12 Q1018 NOSIG
cycle: 7

Station Type Date Time Source
EDDP TAF 2018/07/19 06:27 UTC NOAA

TAF EDDP 190500Z 1906/2006 30010KT CAVOK
BECMG 1918/1920 33005KT
BECMG 1920/1923 VRB03KT


Example: see airport list